createdAt,value
2024-05-09T00:00:47.989Z,1024.12
2024-05-09T00:01:53.978Z,1024.1
2024-05-09T00:03:00.093Z,1024.06
2024-05-09T00:04:06.144Z,1024.04
2024-05-09T00:05:14.119Z,1024.06
2024-05-09T00:06:19.078Z,1024.04
2024-05-09T00:07:24.417Z,1024.04
2024-05-09T00:08:30.661Z,1024.08
2024-05-09T00:09:36.604Z,1024.07
2024-05-09T00:10:42.763Z,1024.08
2024-05-09T00:11:48.927Z,1024.06
2024-05-09T00:12:54.900Z,1024.12
2024-05-09T00:14:00.999Z,1024.11
2024-05-09T00:15:07.117Z,1024.07
2024-05-09T00:16:13.176Z,1024.08
2024-05-09T00:17:19.595Z,1024.15
2024-05-09T00:18:25.473Z,1024.13
2024-05-09T00:19:31.511Z,1024.08
2024-05-09T00:20:40.492Z,1024.09
2024-05-09T00:21:43.674Z,1024.04
2024-05-09T00:22:49.808Z,1024.03
2024-05-09T00:23:55.820Z,1024.03
2024-05-09T00:25:01.937Z,1024.02
2024-05-09T00:26:08.061Z,1024.06
2024-05-09T00:27:14.154Z,1024.06
2024-05-09T00:28:20.214Z,1024.12
2024-05-09T00:29:26.391Z,1024.08
2024-05-09T00:30:35.694Z,1024.12
2024-05-09T00:31:38.526Z,1024.09
2024-05-09T00:32:44.703Z,1024.09
2024-05-09T00:33:50.929Z,1024.1
2024-05-09T00:34:56.874Z,1024.1
2024-05-09T00:36:02.908Z,1024.06
2024-05-09T00:37:08.979Z,1024.04
2024-05-09T00:38:15.112Z,1024.1
2024-05-09T00:39:21.144Z,1024.06
2024-05-09T00:40:35.680Z,1024.05
2024-05-09T00:41:33.458Z,1024.06
2024-05-09T00:42:39.475Z,1024.02
2024-05-09T00:43:45.580Z,1024.02
2024-05-09T00:44:51.640Z,1024.04
2024-05-09T00:45:57.749Z,1023.98
2024-05-09T00:47:03.993Z,1023.99
2024-05-09T00:48:11.063Z,1023.99
2024-05-09T00:49:16.172Z,1023.98
2024-05-09T00:50:29.460Z,1023.97
2024-05-09T00:51:28.201Z,1023.93
2024-05-09T00:52:34.331Z,1023.95
2024-05-09T00:53:40.488Z,1023.94
2024-05-09T00:54:46.482Z,1023.95
2024-05-09T00:55:52.649Z,1023.94
2024-05-09T00:56:58.687Z,1023.91
2024-05-09T00:58:04.811Z,1023.94
2024-05-09T00:59:17.092Z,1023.97
2024-05-09T01:00:31.150Z,1023.96
2024-05-09T01:01:29.289Z,1024
2024-05-09T01:02:35.546Z,1023.99
2024-05-09T01:03:41.588Z,1024.02
2024-05-09T01:04:47.762Z,1024.01
2024-05-09T01:05:53.719Z,1024.02
2024-05-09T01:06:59.612Z,1024.05
2024-05-09T01:08:05.881Z,1024.02
2024-05-09T01:09:11.867Z,1024.06
2024-05-09T01:10:24.310Z,1024.05
2024-05-09T01:11:24.196Z,1024.03
2024-05-09T01:12:30.271Z,1024.07
2024-05-09T01:13:36.270Z,1024.03
2024-05-09T01:14:42.364Z,1024.08
2024-05-09T01:15:48.442Z,1024.07
2024-05-09T01:16:54.505Z,1024.08
2024-05-09T01:18:00.919Z,1024.1
2024-05-09T01:19:06.795Z,1024.06
2024-05-09T01:20:19.957Z,1024.04
2024-05-09T01:21:19.019Z,1024.07
2024-05-09T01:22:25.038Z,1024.04
2024-05-09T01:23:31.271Z,1024.05
2024-05-09T01:24:37.207Z,1024.03
2024-05-09T01:25:43.498Z,1024.01
2024-05-09T01:26:49.364Z,1024.02
2024-05-09T01:27:55.492Z,1023.99
2024-05-09T01:29:01.589Z,1023.99
2024-05-09T01:30:09.613Z,1024.02
2024-05-09T01:31:14.254Z,1024
2024-05-09T01:32:19.912Z,1024.03
2024-05-09T01:33:26.278Z,1024.03
2024-05-09T01:34:32.064Z,1024.02
2024-05-09T01:35:38.293Z,1024.05
2024-05-09T01:36:44.272Z,1024.02
2024-05-09T01:37:50.326Z,1024.03
2024-05-09T01:38:56.448Z,1024.04
2024-05-09T01:40:03.527Z,1024.06
2024-05-09T01:41:08.676Z,1024.05
2024-05-09T01:42:14.862Z,1024.08
2024-05-09T01:43:20.825Z,1024.05
2024-05-09T01:44:27.014Z,1024.04
2024-05-09T01:45:33.096Z,1024.03
2024-05-09T01:46:39.062Z,1024.03
2024-05-09T01:47:45.460Z,1023.99
2024-05-09T01:48:51.362Z,1024.02
2024-05-09T01:49:57.417Z,1024.01
2024-05-09T01:51:03.555Z,1023.99
2024-05-09T01:52:09.501Z,1024
2024-05-09T01:53:15.750Z,1023.95
2024-05-09T01:54:21.756Z,1023.97
2024-05-09T01:55:27.882Z,1023.99
2024-05-09T01:56:34.046Z,1023.98
2024-05-09T01:57:40.055Z,1023.99
2024-05-09T01:58:46.247Z,1024.03
2024-05-09T01:59:52.229Z,1023.98
2024-05-09T02:00:58.383Z,1023.95
2024-05-09T02:02:04.591Z,1023.95
2024-05-09T02:03:12.672Z,1023.97
2024-05-09T02:04:16.900Z,1023.96
2024-05-09T02:05:22.961Z,1024.02
2024-05-09T02:06:28.810Z,1024.02
2024-05-09T02:07:34.807Z,1023.98
2024-05-09T02:08:41.045Z,1023.96
2024-05-09T02:09:47.098Z,1023.94
2024-05-09T02:10:53.347Z,1023.95
2024-05-09T02:11:59.309Z,1023.93
2024-05-09T02:13:05.372Z,1023.94
2024-05-09T02:14:11.528Z,1023.92
2024-05-09T02:15:17.566Z,1023.94
2024-05-09T02:16:23.667Z,1023.94
2024-05-09T02:17:29.921Z,1023.93
2024-05-09T02:18:35.936Z,1023.95
2024-05-09T02:19:41.973Z,1023.98
2024-05-09T02:20:48.155Z,1023.94
2024-05-09T02:21:54.123Z,1023.96
2024-05-09T02:23:00.240Z,1023.92
2024-05-09T02:24:06.359Z,1023.98
2024-05-09T02:25:12.418Z,1024
2024-05-09T02:26:18.551Z,1024.03
2024-05-09T02:27:24.655Z,1024.02
2024-05-09T02:28:30.674Z,1024.03
2024-05-09T02:29:36.862Z,1024.07
2024-05-09T02:30:42.951Z,1024.05
2024-05-09T02:31:49.059Z,1024.01
2024-05-09T02:32:55.228Z,1024.01
2024-05-09T02:34:01.490Z,1023.99
2024-05-09T02:35:07.312Z,1023.97
2024-05-09T02:36:13.367Z,1023.96
2024-05-09T02:37:19.447Z,1023.88
2024-05-09T02:38:25.550Z,1023.92
2024-05-09T02:39:31.655Z,1023.89
2024-05-09T02:40:39.468Z,1023.91
2024-05-09T02:41:43.828Z,1023.91
2024-05-09T02:42:49.940Z,1023.89
2024-05-09T02:43:55.958Z,1023.9
2024-05-09T02:45:02.112Z,1023.89
2024-05-09T02:46:08.201Z,1023.9
2024-05-09T02:47:14.411Z,1023.9
2024-05-09T02:48:20.651Z,1023.92
2024-05-09T02:49:26.647Z,1023.88
2024-05-09T02:50:37.942Z,1023.9
2024-05-09T02:51:38.696Z,1023.91
2024-05-09T02:52:44.845Z,1023.88
2024-05-09T02:53:50.867Z,1023.87
2024-05-09T02:54:56.944Z,1023.85
2024-05-09T02:56:03.178Z,1023.87
2024-05-09T02:57:09.177Z,1023.85
2024-05-09T02:58:15.267Z,1023.87
2024-05-09T02:59:21.472Z,1023.89
2024-05-09T03:00:36.300Z,1023.91
2024-05-09T03:01:33.697Z,1023.92
2024-05-09T03:02:39.712Z,1023.88
2024-05-09T03:03:45.833Z,1023.91
2024-05-09T03:04:51.925Z,1023.92
2024-05-09T03:05:57.932Z,1023.89
2024-05-09T03:07:03.999Z,1023.91
2024-05-09T03:08:10.204Z,1023.89
2024-05-09T03:09:16.175Z,1023.89
2024-05-09T03:10:28.091Z,1023.91
2024-05-09T03:11:28.435Z,1023.92
2024-05-09T03:12:36.549Z,1023.92
2024-05-09T03:13:40.585Z,1023.93
2024-05-09T03:14:46.682Z,1023.92
2024-05-09T03:15:52.801Z,1023.93
2024-05-09T03:16:58.930Z,1023.94
2024-05-09T03:18:05.437Z,1023.91
2024-05-09T03:19:11.148Z,1023.9
2024-05-09T03:20:23.628Z,1023.9
2024-05-09T03:21:23.229Z,1023.9
2024-05-09T03:22:29.353Z,1023.88
2024-05-09T03:23:35.460Z,1023.88
2024-05-09T03:24:41.516Z,1023.9
2024-05-09T03:25:47.678Z,1023.9
2024-05-09T03:26:53.710Z,1023.94
2024-05-09T03:27:59.925Z,1023.95
2024-05-09T03:29:05.969Z,1023.95
2024-05-09T03:30:15.585Z,1023.94
2024-05-09T03:31:18.106Z,1023.94
2024-05-09T03:32:24.306Z,1023.93
2024-05-09T03:33:30.598Z,1023.94
2024-05-09T03:34:36.379Z,1023.98
2024-05-09T03:35:42.470Z,1023.97
2024-05-09T03:36:48.610Z,1023.98
2024-05-09T03:37:54.691Z,1023.98
2024-05-09T03:39:00.749Z,1023.91
2024-05-09T03:40:11.626Z,1023.9
2024-05-09T03:41:12.991Z,1023.96
2024-05-09T03:42:19.072Z,1023.96
2024-05-09T03:43:25.159Z,1023.95
2024-05-09T03:44:31.423Z,1024.02
2024-05-09T03:45:37.353Z,1023.98
2024-05-09T03:46:43.414Z,1023.97
2024-05-09T03:47:49.719Z,1023.99
2024-05-09T03:48:55.705Z,1023.99
2024-05-09T03:50:01.753Z,1024
2024-05-09T03:51:08.029Z,1024.02
2024-05-09T03:52:13.896Z,1023.98
2024-05-09T03:53:20.073Z,1023.99
2024-05-09T03:54:26.066Z,1023.96
2024-05-09T03:55:32.339Z,1024.03
2024-05-09T03:56:38.334Z,1024.03
2024-05-09T03:57:44.355Z,1024.04
2024-05-09T03:58:50.551Z,1024
2024-05-09T03:59:56.552Z,1024
2024-05-09T04:01:02.714Z,1024.02
2024-05-09T04:02:08.854Z,1023.97
2024-05-09T04:03:15.167Z,1023.98
2024-05-09T04:04:20.937Z,1023.98
2024-05-09T04:05:27.160Z,1023.97
2024-05-09T04:06:33.111Z,1023.95
2024-05-09T04:07:39.238Z,1023.98
2024-05-09T04:08:45.313Z,1023.98
2024-05-09T04:09:51.409Z,1023.99
2024-05-09T04:10:57.599Z,1023.98
2024-05-09T04:12:03.752Z,1023.98
2024-05-09T04:13:09.670Z,1024.01
2024-05-09T04:14:15.841Z,1024
2024-05-09T04:15:21.821Z,1023.98
2024-05-09T04:16:27.965Z,1024
2024-05-09T04:17:34.894Z,1024.04
2024-05-09T04:18:40.266Z,1024
2024-05-09T04:19:46.319Z,1024.02
2024-05-09T04:20:52.403Z,1024.02
2024-05-09T04:21:58.465Z,1024.03
2024-05-09T04:23:04.612Z,1024.05
2024-05-09T04:24:10.664Z,1024.05
2024-05-09T04:25:16.734Z,1024.07
2024-05-09T04:26:22.928Z,1024.1
2024-05-09T04:27:28.965Z,1024.12
2024-05-09T04:28:35.235Z,1024.12
2024-05-09T04:29:41.090Z,1024.13
2024-05-09T04:30:47.119Z,1024.1
2024-05-09T04:31:53.456Z,1024.1
2024-05-09T04:32:59.471Z,1024.11
2024-05-09T04:34:05.886Z,1024.11
2024-05-09T04:35:11.629Z,1024.12
2024-05-09T04:36:17.698Z,1024.14
2024-05-09T04:37:23.780Z,1024.18
2024-05-09T04:38:29.974Z,1024.15
2024-05-09T04:39:42.136Z,1024.17
2024-05-09T04:40:48.268Z,1024.13
2024-05-09T04:41:54.320Z,1024.17
2024-05-09T04:43:00.432Z,1024.15
2024-05-09T04:44:06.635Z,1024.17
2024-05-09T04:45:12.575Z,1024.11
2024-05-09T04:46:18.698Z,1024.1
2024-05-09T04:47:24.954Z,1024.11
2024-05-09T04:48:30.969Z,1024.11
2024-05-09T04:49:37.052Z,1024.11
2024-05-09T04:50:43.140Z,1024.11
2024-05-09T04:51:49.141Z,1024.14
2024-05-09T04:52:55.292Z,1024.11
2024-05-09T04:54:01.351Z,1024.14
2024-05-09T04:55:07.463Z,1024.13
2024-05-09T04:56:13.709Z,1024.14
2024-05-09T04:57:19.582Z,1024.12
2024-05-09T04:58:25.727Z,1024.14
2024-05-09T04:59:31.966Z,1024.19
2024-05-09T05:00:39.072Z,1024.16
2024-05-09T05:01:44.129Z,1024.22
2024-05-09T05:02:50.235Z,1024.18
2024-05-09T05:03:56.494Z,1024.16
2024-05-09T05:05:02.482Z,1024.18
2024-05-09T05:06:08.455Z,1024.17
2024-05-09T05:07:14.507Z,1024.15
2024-05-09T05:08:20.628Z,1024.16
2024-05-09T05:09:26.692Z,1024.15
2024-05-09T05:10:36.300Z,1024.19
2024-05-09T05:11:38.965Z,1024.14
2024-05-09T05:12:45.002Z,1024.15
2024-05-09T05:13:51.150Z,1024.15
2024-05-09T05:14:57.148Z,1024.13
2024-05-09T05:16:03.249Z,1024.14
2024-05-09T05:17:09.376Z,1024.17
2024-05-09T05:18:15.676Z,1024.15
2024-05-09T05:19:21.689Z,1024.18
2024-05-09T05:20:33.230Z,1024.21
2024-05-09T05:21:33.760Z,1024.2
2024-05-09T05:22:39.827Z,1024.23
2024-05-09T05:23:45.944Z,1024.24
2024-05-09T05:24:52.030Z,1024.21
2024-05-09T05:25:58.191Z,1024.23
2024-05-09T05:27:04.173Z,1024.23
2024-05-09T05:28:10.455Z,1024.21
2024-05-09T05:29:19.507Z,1024.26
2024-05-09T05:30:28.756Z,1024.26
2024-05-09T05:31:29.283Z,1024.28
2024-05-09T05:32:34.836Z,1024.24
2024-05-09T05:33:40.856Z,1024.24
2024-05-09T05:34:46.938Z,1024.18
2024-05-09T05:35:53.019Z,1024.22
2024-05-09T05:36:59.042Z,1024.22
2024-05-09T05:38:05.272Z,1024.2
2024-05-09T05:39:11.221Z,1024.26
2024-05-09T05:40:28.003Z,1024.23
2024-05-09T05:41:23.478Z,1024.26
2024-05-09T05:42:29.844Z,1024.21
2024-05-09T05:43:35.601Z,1024.2
2024-05-09T05:44:41.794Z,1024.2
2024-05-09T05:45:47.812Z,1024.18
2024-05-09T05:46:53.973Z,1024.22
2024-05-09T05:48:00.266Z,1024.21
2024-05-09T05:49:06.181Z,1024.25
2024-05-09T05:50:20.926Z,1024.28
2024-05-09T05:51:18.323Z,1024.27
2024-05-09T05:52:24.364Z,1024.25
2024-05-09T05:53:30.657Z,1024.25
2024-05-09T05:54:36.552Z,1024.25
2024-05-09T05:55:42.815Z,1024.25
2024-05-09T05:56:48.773Z,1024.2
2024-05-09T05:57:54.853Z,1024.21
2024-05-09T05:59:00.990Z,1024.23
2024-05-09T06:00:09.614Z,1024.26
2024-05-09T06:01:13.261Z,1024.23
2024-05-09T06:02:19.521Z,1024.23
2024-05-09T06:03:25.427Z,1024.21
2024-05-09T06:04:31.490Z,1024.21
2024-05-09T06:05:37.706Z,1024.22
2024-05-09T06:06:43.621Z,1024.19
2024-05-09T06:07:49.698Z,1024.2
2024-05-09T06:08:55.815Z,1024.21
2024-05-09T06:10:02.887Z,1024.22
2024-05-09T06:11:08.105Z,1024.24
2024-05-09T06:12:14.152Z,1024.21
2024-05-09T06:13:20.193Z,1024.23
2024-05-09T06:14:26.391Z,1024.22
2024-05-09T06:15:32.357Z,1024.2
2024-05-09T06:16:38.454Z,1024.2
2024-05-09T06:17:44.823Z,1024.25
2024-05-09T06:18:50.802Z,1024.26
2024-05-09T06:19:56.858Z,1024.25
2024-05-09T06:21:02.884Z,1024.25
2024-05-09T06:22:08.933Z,1024.22
2024-05-09T06:23:15.060Z,1024.26
2024-05-09T06:24:21.112Z,1024.22
2024-05-09T06:25:27.204Z,1024.24
2024-05-09T06:26:33.382Z,1024.22
2024-05-09T06:27:39.416Z,1024.21
2024-05-09T06:28:45.557Z,1024.24
2024-05-09T06:29:51.603Z,1024.22
2024-05-09T06:30:57.740Z,1024.2
2024-05-09T06:32:03.861Z,1024.19
2024-05-09T06:33:11.529Z,1024.15
2024-05-09T06:34:16.320Z,1024.18
2024-05-09T06:35:22.121Z,1024.17
2024-05-09T06:36:28.164Z,1024.18
2024-05-09T06:37:34.303Z,1024.21
2024-05-09T06:38:40.403Z,1024.17
2024-05-09T06:39:46.485Z,1024.17
2024-05-09T06:40:52.552Z,1024.17
2024-05-09T06:41:58.646Z,1024.14
2024-05-09T06:43:04.741Z,1024.13
2024-05-09T06:44:10.933Z,1024.11
2024-05-09T06:45:16.960Z,1024.1
2024-05-09T06:46:23.051Z,1024.09
2024-05-09T06:47:29.217Z,1024.05
2024-05-09T06:48:35.386Z,1024.06
2024-05-09T06:49:41.414Z,1024.07
2024-05-09T06:50:47.481Z,1024.06
2024-05-09T06:51:53.510Z,1024.06
2024-05-09T06:52:59.628Z,1024.07
2024-05-09T06:54:05.703Z,1024.07
2024-05-09T06:55:11.819Z,1024.09
2024-05-09T06:56:17.916Z,1024.08
2024-05-09T06:57:23.990Z,1024.06
2024-05-09T06:58:30.083Z,1024.09
2024-05-09T06:59:36.217Z,1024.06
2024-05-09T07:00:42.615Z,1024.07
2024-05-09T07:01:48.412Z,1024.06
2024-05-09T07:02:54.597Z,1024.06
2024-05-09T07:04:00.616Z,1024.06
2024-05-09T07:05:06.735Z,1024.1
2024-05-09T07:06:12.774Z,1024.07
2024-05-09T07:07:18.822Z,1024.1
2024-05-09T07:08:24.969Z,1024.08
2024-05-09T07:09:31.010Z,1024.11
2024-05-09T07:10:37.463Z,1024.11
2024-05-09T07:11:43.329Z,1024.1
2024-05-09T07:12:49.343Z,1024.11
2024-05-09T07:13:55.412Z,1024.06
2024-05-09T07:15:01.478Z,1024.05
2024-05-09T07:16:07.564Z,1024.07
2024-05-09T07:17:13.796Z,1024.07
2024-05-09T07:18:20.604Z,1024.08
2024-05-09T07:19:26.039Z,1024.08
2024-05-09T07:20:34.792Z,1024.07
2024-05-09T07:21:38.090Z,1024.06
2024-05-09T07:22:44.177Z,1024.05
2024-05-09T07:23:50.320Z,1024.06
2024-05-09T07:24:56.327Z,1024.06
2024-05-09T07:26:02.553Z,1024.06
2024-05-09T07:27:08.586Z,1024.04
2024-05-09T07:28:14.741Z,1024.04
2024-05-09T07:29:20.828Z,1024.04
2024-05-09T07:30:33.132Z,1024.05
2024-05-09T07:31:32.912Z,1024.05
2024-05-09T07:32:39.298Z,1024.03
2024-05-09T07:33:45.286Z,1024.06
2024-05-09T07:34:51.286Z,1024.05
2024-05-09T07:35:57.290Z,1024.06
2024-05-09T07:37:03.379Z,1024.07
2024-05-09T07:38:09.568Z,1024.07
2024-05-09T07:39:15.589Z,1024.1
2024-05-09T07:40:28.983Z,1024.06
2024-05-09T07:41:27.816Z,1024.05
2024-05-09T07:42:33.898Z,1024.07
2024-05-09T07:43:39.990Z,1024.07
2024-05-09T07:44:46.064Z,1024.09
2024-05-09T07:45:54.698Z,1024.1
2024-05-09T07:50:54.885Z,1024.05
2024-05-09T07:53:32.511Z,1024.01
2024-05-09T07:53:42.206Z,1024.03
2024-05-09T07:54:41.104Z,1024.02
2024-05-09T07:55:47.165Z,1024.03
2024-05-09T07:56:53.393Z,1024.02
2024-05-09T07:57:59.331Z,1024
2024-05-09T07:59:05.295Z,1024.02
2024-05-09T08:00:14.259Z,1024.02
2024-05-09T08:01:17.659Z,1024.04
2024-05-09T08:02:23.869Z,1023.99
2024-05-09T08:03:29.868Z,1024.03
2024-05-09T08:04:35.909Z,1023.99
2024-05-09T08:05:42.139Z,1024.01
2024-05-09T08:06:48.031Z,1024.01
2024-05-09T08:07:54.104Z,1024
2024-05-09T08:09:05.169Z,1024.02
2024-05-09T08:10:08.046Z,1024.01
2024-05-09T08:11:12.301Z,1023.99
2024-05-09T08:12:18.479Z,1023.99
2024-05-09T08:13:24.621Z,1023.94
2024-05-09T08:14:30.653Z,1023.93
2024-05-09T08:15:36.750Z,1023.94
2024-05-09T08:16:42.812Z,1023.94
2024-05-09T08:17:49.496Z,1023.93
2024-05-09T08:18:55.072Z,1023.91
2024-05-09T08:20:07.664Z,1023.94
2024-05-09T08:21:13.316Z,1023.9
2024-05-09T08:22:19.548Z,1023.94
2024-05-09T08:23:25.524Z,1023.92
2024-05-09T08:24:31.681Z,1023.93
2024-05-09T08:25:37.704Z,1023.9
2024-05-09T08:26:43.797Z,1023.89
2024-05-09T08:27:50.191Z,1023.92
2024-05-09T08:28:56.038Z,1023.9
2024-05-09T08:30:02.149Z,1023.93
2024-05-09T08:31:08.263Z,1023.91
2024-05-09T08:32:14.354Z,1023.91
2024-05-09T08:33:20.566Z,1023.93
2024-05-09T08:34:26.667Z,1023.93
2024-05-09T08:35:32.586Z,1023.93
2024-05-09T08:36:38.782Z,1023.94
2024-05-09T08:37:44.846Z,1023.96
2024-05-09T08:38:50.847Z,1023.93
2024-05-09T08:39:57.002Z,1023.92
2024-05-09T08:41:03.112Z,1023.93
2024-05-09T08:42:09.191Z,1023.94
2024-05-09T08:43:15.404Z,1023.89
2024-05-09T08:44:21.337Z,1023.9
2024-05-09T08:45:27.488Z,1023.86
2024-05-09T08:46:33.622Z,1023.87
2024-05-09T08:47:39.716Z,1023.9
2024-05-09T08:48:45.955Z,1023.89
2024-05-09T08:49:51.827Z,1023.89
2024-05-09T08:50:57.924Z,1023.9
2024-05-09T08:52:04.049Z,1023.89
2024-05-09T08:53:10.144Z,1023.93
2024-05-09T08:54:16.171Z,1023.87
2024-05-09T08:55:22.341Z,1023.92
2024-05-09T08:56:28.406Z,1023.88
2024-05-09T08:57:34.489Z,1023.9
2024-05-09T08:58:40.559Z,1023.85
2024-05-09T08:59:46.671Z,1023.87
2024-05-09T09:00:52.940Z,1023.9
2024-05-09T09:01:59.067Z,1023.86
2024-05-09T09:03:05.015Z,1023.87
2024-05-09T09:04:11.163Z,1023.85
2024-05-09T09:05:17.307Z,1023.86
2024-05-09T09:06:23.246Z,1023.89
2024-05-09T09:07:29.450Z,1023.84
2024-05-09T09:08:35.421Z,1023.87
2024-05-09T09:09:41.643Z,1023.85
2024-05-09T09:10:47.847Z,1023.86
2024-05-09T09:11:53.751Z,1023.85
2024-05-09T09:12:59.831Z,1023.85
2024-05-09T09:14:05.793Z,1023.87
2024-05-09T09:15:12.006Z,1023.85
2024-05-09T09:16:18.196Z,1023.81
2024-05-09T09:17:24.226Z,1023.81
2024-05-09T09:18:30.800Z,1023.82
2024-05-09T09:19:36.417Z,1023.8
2024-05-09T09:20:42.539Z,1023.81
2024-05-09T09:21:48.632Z,1023.82
2024-05-09T09:22:54.629Z,1023.82
2024-05-09T09:24:00.646Z,1023.83
2024-05-09T09:25:06.971Z,1023.8
2024-05-09T09:26:12.928Z,1023.78
2024-05-09T09:27:19.025Z,1023.7
2024-05-09T09:28:25.137Z,1023.73
2024-05-09T09:29:31.235Z,1023.77
2024-05-09T09:30:38.200Z,1023.73
2024-05-09T09:31:43.434Z,1023.72
2024-05-09T09:32:49.652Z,1023.72
2024-05-09T09:33:55.899Z,1023.71
2024-05-09T09:35:01.768Z,1023.71
2024-05-09T09:36:09.721Z,1023.67
2024-05-09T09:37:14.003Z,1023.68
2024-05-09T09:38:20.001Z,1023.64
2024-05-09T09:39:26.068Z,1023.69
2024-05-09T09:40:34.057Z,1023.69
2024-05-09T09:41:38.278Z,1023.68
2024-05-09T09:42:44.418Z,1023.69
2024-05-09T09:43:50.470Z,1023.69
2024-05-09T09:45:04.265Z,1023.68
2024-05-09T09:46:02.764Z,1023.7
2024-05-09T09:47:08.805Z,1023.71
2024-05-09T09:48:14.981Z,1023.7
2024-05-09T09:49:20.910Z,1023.73
2024-05-09T09:50:33.691Z,1023.73
2024-05-09T09:51:33.212Z,1023.71
2024-05-09T09:52:39.209Z,1023.69
2024-05-09T09:53:45.322Z,1023.68
2024-05-09T09:54:51.364Z,1023.71
2024-05-09T09:55:57.540Z,1023.65
2024-05-09T09:57:03.629Z,1023.64
2024-05-09T09:58:12.176Z,1023.66
2024-05-09T09:59:15.807Z,1023.69
2024-05-09T10:00:27.200Z,1023.66
2024-05-09T10:01:28.086Z,1023.64
2024-05-09T10:02:34.250Z,1023.69
2024-05-09T10:03:40.389Z,1023.67
2024-05-09T10:04:46.381Z,1023.66
2024-05-09T10:05:52.425Z,1023.67
2024-05-09T10:06:58.536Z,1023.66
2024-05-09T10:08:04.537Z,1023.65
2024-05-09T10:09:10.627Z,1023.64
2024-05-09T10:10:22.934Z,1023.62
2024-05-09T10:11:22.986Z,1023.67
2024-05-09T10:12:29.027Z,1023.67
2024-05-09T10:13:35.271Z,1023.67
2024-05-09T10:14:41.119Z,1023.66
2024-05-09T10:15:47.320Z,1023.68
2024-05-09T10:16:53.326Z,1023.67
2024-05-09T10:17:59.552Z,1023.68
2024-05-09T10:19:05.634Z,1023.74
2024-05-09T10:20:18.232Z,1023.72
2024-05-09T10:21:17.726Z,1023.66
2024-05-09T10:22:23.782Z,1023.67
2024-05-09T10:23:29.874Z,1023.67
2024-05-09T10:24:36.032Z,1023.72
2024-05-09T10:25:42.071Z,1023.68
2024-05-09T10:26:48.216Z,1023.67
2024-05-09T10:27:54.434Z,1023.66
2024-05-09T10:29:00.392Z,1023.68
2024-05-09T10:30:11.571Z,1023.66
2024-05-09T10:31:12.583Z,1023.68
2024-05-09T10:32:18.825Z,1023.66
2024-05-09T10:33:24.819Z,1023.63
2024-05-09T10:34:30.916Z,1023.63
2024-05-09T10:35:36.936Z,1023.62
2024-05-09T10:36:43.093Z,1023.62
2024-05-09T10:37:49.662Z,1023.61
2024-05-09T10:38:55.211Z,1023.62
2024-05-09T10:40:01.340Z,1023.61
2024-05-09T10:41:07.328Z,1023.59
2024-05-09T10:42:13.490Z,1023.59
2024-05-09T10:43:19.738Z,1023.55
2024-05-09T10:44:25.691Z,1023.52
2024-05-09T10:45:31.955Z,1023.48
2024-05-09T10:46:37.871Z,1023.47
2024-05-09T10:47:44.141Z,1023.44
2024-05-09T10:48:50.493Z,1023.43
2024-05-09T10:49:56.232Z,1023.46
2024-05-09T10:51:02.172Z,1023.45
2024-05-09T10:52:08.463Z,1023.44
2024-05-09T10:53:14.461Z,1023.42
2024-05-09T10:54:20.555Z,1023.44
2024-05-09T10:55:26.685Z,1023.41
2024-05-09T10:56:32.755Z,1023.35
2024-05-09T10:57:38.903Z,1023.38
2024-05-09T10:58:44.983Z,1023.36
2024-05-09T10:59:51.038Z,1023.34
2024-05-09T11:00:57.200Z,1023.36
2024-05-09T11:02:03.386Z,1023.33
2024-05-09T11:03:09.364Z,1023.38
2024-05-09T11:04:15.485Z,1023.41
2024-05-09T11:05:21.719Z,1023.3
2024-05-09T11:06:27.541Z,1023.36
2024-05-09T11:07:33.737Z,1023.3
2024-05-09T11:08:39.763Z,1023.35
2024-05-09T11:09:45.915Z,1023.33
2024-05-09T11:10:52.010Z,1023.28
2024-05-09T11:11:58.161Z,1023.24
2024-05-09T11:13:04.322Z,1023.27
2024-05-09T11:14:10.250Z,1023.24
2024-05-09T11:15:16.368Z,1023.22
2024-05-09T11:16:22.687Z,1023.19
2024-05-09T11:17:28.735Z,1023.21
2024-05-09T11:18:37.970Z,1023.17
2024-05-09T11:19:40.947Z,1023.15
2024-05-09T11:20:46.846Z,1023.12
2024-05-09T11:21:53.128Z,1023.14
2024-05-09T11:22:59.015Z,1023.15
2024-05-09T11:24:07.309Z,1023.13
2024-05-09T11:25:11.282Z,1023.11
2024-05-09T11:26:17.291Z,1023.1
2024-05-09T11:27:23.407Z,1023.07
2024-05-09T11:28:29.485Z,1023.05
2024-05-09T11:29:35.630Z,1023.09
2024-05-09T11:30:41.773Z,1023.07
2024-05-09T11:31:47.796Z,1023.06
2024-05-09T11:32:53.994Z,1023.06
2024-05-09T11:34:00.012Z,1023.04
2024-05-09T11:35:06.087Z,1023.06
2024-05-09T11:36:12.175Z,1023.07
2024-05-09T11:37:18.310Z,1023.09
2024-05-09T11:38:24.351Z,1023.03
2024-05-09T11:39:30.495Z,1023.04
2024-05-09T11:40:36.628Z,1023.06
2024-05-09T11:41:42.700Z,1023.03
2024-05-09T11:42:50.830Z,1023.02
2024-05-09T11:43:54.813Z,1023.01
2024-05-09T11:45:00.916Z,1023.04
2024-05-09T11:46:07.086Z,1023.03
2024-05-09T11:47:13.173Z,1022.99
2024-05-09T11:48:19.336Z,1022.99
2024-05-09T11:49:27.036Z,1022.96
2024-05-09T11:50:35.560Z,1022.99
2024-05-09T11:51:37.604Z,1022.94
2024-05-09T11:52:43.592Z,1022.93
2024-05-09T11:53:49.672Z,1022.93
2024-05-09T11:54:55.800Z,1022.93
2024-05-09T11:56:01.872Z,1022.89
2024-05-09T11:57:07.957Z,1022.87
2024-05-09T11:58:14.150Z,1022.9
2024-05-09T11:59:20.155Z,1022.86
2024-05-09T12:00:36.913Z,1022.9
2024-05-09T12:01:38.545Z,1022.87
2024-05-09T12:02:44.565Z,1022.86
2024-05-09T12:03:50.776Z,1022.86
2024-05-09T12:04:56.870Z,1022.84
2024-05-09T12:06:03.096Z,1022.85
2024-05-09T12:07:12.213Z,1022.86
2024-05-09T12:08:15.058Z,1022.89
2024-05-09T12:09:21.162Z,1022.84
2024-05-09T12:10:32.880Z,1022.83
2024-05-09T12:11:33.408Z,1022.8
2024-05-09T12:12:39.536Z,1022.81
2024-05-09T12:13:45.530Z,1022.79
2024-05-09T12:14:51.588Z,1022.81
2024-05-09T12:15:57.787Z,1022.8
2024-05-09T12:17:03.883Z,1022.85
2024-05-09T12:18:10.076Z,1022.82
2024-05-09T12:19:16.071Z,1022.79
2024-05-09T12:20:28.754Z,1022.81
2024-05-09T12:21:28.192Z,1022.81
2024-05-09T12:22:34.258Z,1022.78
2024-05-09T12:23:40.354Z,1022.77
2024-05-09T12:24:46.507Z,1022.78
2024-05-09T12:25:52.558Z,1022.75
2024-05-09T12:26:58.707Z,1022.75
2024-05-09T12:28:04.794Z,1022.77
2024-05-09T12:29:10.840Z,1022.73
2024-05-09T12:30:24.711Z,1022.75
2024-05-09T12:31:23.103Z,1022.69
2024-05-09T12:32:29.228Z,1022.66
2024-05-09T12:33:35.326Z,1022.63
2024-05-09T12:34:41.390Z,1022.61
2024-05-09T12:35:50.138Z,1022.65
2024-05-09T12:36:53.569Z,1022.59
2024-05-09T12:37:59.585Z,1022.6
2024-05-09T12:39:05.707Z,1022.57
2024-05-09T12:40:18.769Z,1022.58
2024-05-09T12:41:17.895Z,1022.57
2024-05-09T12:42:27.452Z,1022.49
2024-05-09T12:43:30.233Z,1022.47
2024-05-09T12:44:36.184Z,1022.42
2024-05-09T12:45:42.342Z,1022.42
2024-05-09T12:46:48.404Z,1022.45
2024-05-09T12:47:54.608Z,1022.5
2024-05-09T12:49:01.223Z,1022.46
2024-05-09T12:50:10.869Z,1022.46
2024-05-09T12:51:12.734Z,1022.46
2024-05-09T12:52:18.829Z,1022.4
2024-05-09T12:53:24.951Z,1022.34
2024-05-09T12:54:31.129Z,1022.36
2024-05-09T12:55:44.468Z,1022.35
2024-05-09T12:56:43.243Z,1022.36
2024-05-09T12:57:49.427Z,1022.29
2024-05-09T12:58:55.410Z,1022.28
2024-05-09T13:00:01.446Z,1022.26
2024-05-09T13:01:07.707Z,1022.27
2024-05-09T13:02:13.833Z,1022.29
2024-05-09T13:03:19.992Z,1022.3
2024-05-09T13:04:26.057Z,1022.2
2024-05-09T13:05:32.335Z,1022.22
2024-05-09T13:06:38.077Z,1022.23
2024-05-09T13:07:44.179Z,1022.2
2024-05-09T13:08:50.276Z,1022.13
2024-05-09T13:09:56.399Z,1022.16
2024-05-09T13:11:02.500Z,1022.15
2024-05-09T13:12:09.080Z,1022.13
2024-05-09T13:13:14.960Z,1022.11
2024-05-09T13:14:20.741Z,1022.13
2024-05-09T13:15:26.847Z,1022.1
2024-05-09T13:16:33.180Z,1022.12
2024-05-09T13:17:39.110Z,1022.08
2024-05-09T13:18:45.246Z,1022.09
2024-05-09T13:19:51.242Z,1022.07
2024-05-09T13:20:57.323Z,1022.06
2024-05-09T13:22:03.492Z,1022
2024-05-09T13:23:09.772Z,1021.97
2024-05-09T13:24:15.597Z,1022
2024-05-09T13:25:21.730Z,1022
2024-05-09T13:26:27.785Z,1021.97
2024-05-09T13:27:33.967Z,1021.95
2024-05-09T13:28:39.999Z,1021.93